Sherwood, Texas
Current Conditions -  °F | °C
As of 11:51 AM on Sunday 21 Dec 2014 (Local Time) from KSJT Reporting Station
Scattered Clouds Scattered Clouds  
Wind Chill: 54°   Ceiling: Unl
Heat Index: 54°   Visibility: 10mi
Dew Point: 43°   Wind: 13mph
Humidity: 66%   Direction: 190°S
Pressure: 29.97"   Gusts: NA
Location:  31.3151°N, 100.959°W
Report Text: KSJT 211751Z 19011KT 10SM SCT021 12/06 A2997 RMK AO2 SLP147 T01220061 10128 20094 58016
Loading
Personal Weather Stations






























Interactive Weather Map New forecast layout! Learn more

10-Day Weather Forecast

Advertisements
Track Severe Weather on mobile